Terminal Aerodrome Forecast
Issued by NWS Wilmington, OH

Current Version | Previous Version | Text Only | Print | Product List | Glossary Off
Versions: 1 2 3 4 5 6 7 8 9 10 11 12 13 14 15 16 17 18 19 20 21 22 23

000
FTUS41 KILN 141747
TAFDAY
TAF
KDAY 141747Z 1418/1518 15005KT P6SM FEW030 SCT250
     FM150300 13005KT P6SM BKN070
     FM150700 14006KT P6SM VCSH OVC050
     FM150800 14006KT 2SM -SN OVC020
     FM151000 14007KT 1SM -SN OVC012
     FM151500 16010G18KT 1SM -SN BR OVC008=

USA.gov is the U.S. government's official web portal to all federal, state and local government web resources and services.